createdAt,value
2017-04-15T00:00:05.397Z,20.88
2017-04-15T00:01:15.318Z,20.89
2017-04-15T00:02:25.570Z,20.89
2017-04-15T00:03:35.181Z,20.77
2017-04-15T00:04:45.101Z,20.88
2017-04-15T00:05:55.330Z,20.94
2017-04-15T00:07:05.251Z,20.91
2017-04-15T00:08:14.547Z,20.87
2017-04-15T00:09:24.472Z,20.94
2017-04-15T00:10:34.702Z,20.8
2017-04-15T00:11:44.932Z,20.91
2017-04-15T00:12:54.856Z,20.88
2017-04-15T00:14:05.093Z,20.91
2017-04-15T00:15:15.571Z,20.87
2017-04-15T00:16:25.922Z,20.92
2017-04-15T00:17:36.158Z,20.85
2017-04-15T00:18:46.399Z,20.88
2017-04-15T00:19:56.065Z,20.87
2017-04-15T00:21:06.309Z,20.87
2017-04-15T00:22:16.538Z,20.88
2017-04-15T00:23:26.760Z,20.89
2017-04-15T00:24:36.683Z,20.89
2017-04-15T00:25:46.912Z,20.89
2017-04-15T00:26:56.524Z,20.87
2017-04-15T00:28:06.443Z,20.87
2017-04-15T00:29:16.359Z,20.82
2017-04-15T00:30:26.273Z,20.91
2017-04-15T00:31:36.210Z,20.88
2017-04-15T00:32:46.438Z,20.91
2017-04-15T00:33:56.677Z,20.88
2017-04-15T00:35:06.911Z,20.88
2017-04-15T00:36:16.831Z,20.88
2017-04-15T00:37:26.748Z,20.92
2017-04-15T00:38:36.994Z,20.87
2017-04-15T00:39:46.911Z,20.88
2017-04-15T00:40:57.133Z,20.92
2017-04-15T00:42:07.367Z,20.87
2017-04-15T00:43:17.493Z,20.94
2017-04-15T00:44:27.777Z,20.87
2017-04-15T00:45:38.021Z,20.85
2017-04-15T00:46:47.621Z,20.91
2017-04-15T00:47:57.233Z,20.91
2017-04-15T00:49:07.470Z,20.91
2017-04-15T00:50:17.701Z,20.91
2017-04-15T00:51:27.303Z,20.85
2017-04-15T00:52:37.545Z,20.94
2017-04-15T00:53:47.781Z,20.89
2017-04-15T00:54:58.007Z,20.97
2017-04-15T00:56:08.231Z,20.91
2017-04-15T00:57:18.145Z,20.89
2017-04-15T00:58:28.374Z,20.89
2017-04-15T00:59:38.283Z,20.87
2017-04-15T01:00:48.204Z,20.92
2017-04-15T01:01:57.800Z,20.92
2017-04-15T01:03:08.025Z,20.91
2017-04-15T01:04:17.941Z,20.94
2017-04-15T01:05:28.183Z,20.92
2017-04-15T01:06:38.404Z,20.87
2017-04-15T01:07:48.638Z,20.95
2017-04-15T01:08:58.558Z,20.8
2017-04-15T01:10:08.786Z,20.88
2017-04-15T01:11:19.046Z,20.82
2017-04-15T01:12:29.614Z,20.8
2017-04-15T01:13:39.842Z,20.88
2017-04-15T01:14:50.127Z,20.79
2017-04-15T01:16:00.042Z,20.8
2017-04-15T01:17:10.273Z,20.85
2017-04-15T01:18:20.505Z,20.88
2017-04-15T01:19:30.746Z,20.87
2017-04-15T01:20:40.658Z,20.85
2017-04-15T01:21:50.880Z,20.82
2017-04-15T01:23:00.797Z,20.85
2017-04-15T01:24:11.038Z,20.76
2017-04-15T01:25:21.263Z,20.76
2017-04-15T01:26:31.176Z,20.82
2017-04-15T01:27:41.093Z,20.82
2017-04-15T01:28:51.001Z,20.74
2017-04-15T01:30:00.919Z,20.8
2017-04-15T01:31:11.137Z,20.76
2017-04-15T01:32:21.365Z,20.73
2017-04-15T01:33:30.980Z,20.79
2017-04-15T01:34:41.217Z,20.82
2017-04-15T01:35:51.134Z,20.79
2017-04-15T01:37:01.356Z,20.73
2017-04-15T01:38:11.275Z,20.82
2017-04-15T01:39:21.508Z,20.84
2017-04-15T01:40:31.733Z,20.84
2017-04-15T01:41:42.037Z,20.77
2017-04-15T01:42:52.325Z,20.79
2017-04-15T01:44:02.579Z,20.77
2017-04-15T01:45:12.488Z,20.84
2017-04-15T01:46:22.402Z,20.79
2017-04-15T01:47:32.322Z,20.88
2017-04-15T01:48:42.570Z,20.84
2017-04-15T01:49:52.478Z,20.82
2017-04-15T01:51:02.411Z,20.82
2017-04-15T01:52:12.023Z,20.84
2017-04-15T01:53:21.969Z,20.79
2017-04-15T01:54:32.200Z,20.85
2017-04-15T01:55:42.123Z,20.85
2017-04-15T01:56:52.343Z,20.82
2017-04-15T01:58:02.565Z,20.8
2017-04-15T01:59:12.802Z,20.84
2017-04-15T02:00:23.045Z,20.79
2017-04-15T02:01:32.960Z,20.84
2017-04-15T02:02:42.574Z,20.82
2017-04-15T02:03:52.798Z,20.79
2017-04-15T02:05:02.712Z,20.8
2017-04-15T02:06:12.949Z,20.85
2017-04-15T02:07:23.175Z,20.87
2017-04-15T02:08:33.397Z,20.82
2017-04-15T02:09:43.631Z,20.79
2017-04-15T02:10:53.542Z,20.82
2017-04-15T02:12:03.464Z,20.88
2017-04-15T02:13:13.378Z,20.74
2017-04-15T02:14:23.632Z,20.8
2017-04-15T02:15:33.860Z,20.79
2017-04-15T02:16:44.091Z,20.79
2017-04-15T02:17:54.004Z,20.85
2017-04-15T02:19:03.921Z,20.82
2017-04-15T02:20:14.156Z,20.8
2017-04-15T02:21:24.394Z,20.76
2017-04-15T02:22:34.624Z,20.79
2017-04-15T02:23:44.547Z,20.91
2017-04-15T02:24:54.772Z,20.87
2017-04-15T02:26:04.682Z,20.82
2017-04-15T02:27:14.594Z,20.79
2017-04-15T02:28:24.819Z,20.82
2017-04-15T02:29:35.047Z,20.82
2017-04-15T02:30:45.265Z,20.85
2017-04-15T02:31:54.866Z,20.79
2017-04-15T02:33:05.091Z,20.82
2017-04-15T02:34:15.002Z,20.82
2017-04-15T02:35:25.225Z,20.82
2017-04-15T02:36:35.467Z,20.85
2017-04-15T02:37:45.697Z,20.82
2017-04-15T02:38:55.484Z,20.84
2017-04-15T02:40:05.401Z,20.8
2017-04-15T02:41:15.322Z,20.77
2017-04-15T02:42:25.553Z,20.87
2017-04-15T02:43:35.471Z,20.79
2017-04-15T02:44:45.085Z,20.85
2017-04-15T02:45:55.308Z,20.8
2017-04-15T02:47:05.538Z,20.8
2017-04-15T02:48:14.824Z,20.77
2017-04-15T02:49:25.055Z,20.76
2017-04-15T02:50:34.968Z,20.8
2017-04-15T02:51:45.191Z,20.76
2017-04-15T02:52:55.103Z,20.76
2017-04-15T02:54:05.352Z,20.87
2017-04-15T02:55:15.268Z,20.84
2017-04-15T02:56:25.175Z,20.82
2017-04-15T02:57:35.400Z,20.8
2017-04-15T02:58:45.309Z,20.82
2017-04-15T02:59:55.228Z,20.82
2017-04-15T03:01:05.455Z,20.76
2017-04-15T03:02:15.681Z,20.77
2017-04-15T03:03:25.596Z,20.85
2017-04-15T03:04:35.846Z,20.77
2017-04-15T03:05:45.759Z,20.8
2017-04-15T03:06:55.987Z,20.74
2017-04-15T03:08:05.915Z,20.77
2017-04-15T03:09:16.145Z,20.79
2017-04-15T03:10:25.753Z,20.8
2017-04-15T03:11:35.985Z,20.82
2017-04-15T03:12:46.215Z,20.84
2017-04-15T03:13:56.349Z,20.82
2017-04-15T03:15:06.262Z,20.84
2017-04-15T03:16:16.511Z,20.82
2017-04-15T03:17:26.738Z,20.79
2017-04-15T03:18:36.663Z,20.88
2017-04-15T03:19:46.581Z,20.87
2017-04-15T03:20:56.802Z,20.94
2017-04-15T03:22:07.039Z,20.89
2017-04-15T03:23:17.268Z,20.84
2017-04-15T03:24:27.491Z,20.77
2017-04-15T03:25:37.717Z,20.76
2017-04-15T03:26:47.635Z,20.76
2017-04-15T03:27:57.854Z,20.76
2017-04-15T03:29:08.076Z,20.82
2017-04-15T03:30:18.004Z,20.84
2017-04-15T03:31:28.232Z,20.8
2017-04-15T03:32:38.459Z,20.85
2017-04-15T03:33:48.708Z,20.84
2017-04-15T03:34:58.620Z,20.8
2017-04-15T03:36:08.844Z,20.76
2017-04-15T03:37:18.765Z,20.8
2017-04-15T03:38:28.676Z,20.82
2017-04-15T03:39:38.922Z,20.77
2017-04-15T03:40:49.155Z,20.73
2017-04-15T03:41:59.390Z,20.79
2017-04-15T03:43:09.744Z,20.73
2017-04-15T03:44:19.972Z,20.84
2017-04-15T03:45:30.209Z,20.8
2017-04-15T03:46:40.331Z,20.84
2017-04-15T03:47:50.557Z,20.82
2017-04-15T03:49:00.480Z,20.72
2017-04-15T03:50:10.731Z,20.84
2017-04-15T03:51:20.952Z,20.8
2017-04-15T03:52:30.867Z,20.85
2017-04-15T03:53:41.099Z,20.73
2017-04-15T03:54:51.012Z,20.89
2017-04-15T03:56:00.926Z,20.77
2017-04-15T03:57:10.849Z,20.8
2017-04-15T03:58:21.079Z,20.8
2017-04-15T03:59:30.989Z,20.74
2017-04-15T04:00:40.905Z,20.79
2017-04-15T04:01:51.130Z,20.85
2017-04-15T04:03:01.087Z,20.77
2017-04-15T04:04:11.037Z,20.8
2017-04-15T04:05:21.282Z,20.79
2017-04-15T04:06:31.195Z,20.8
2017-04-15T04:07:41.137Z,20.82
2017-04-15T04:08:51.050Z,20.74
2017-04-15T04:10:00.973Z,20.82
2017-04-15T04:11:11.203Z,20.77
2017-04-15T04:12:20.802Z,20.79
2017-04-15T04:13:31.037Z,20.79
2017-04-15T04:14:41.270Z,20.76
2017-04-15T04:15:51.504Z,20.7
2017-04-15T04:17:01.411Z,20.8
2017-04-15T04:18:11.329Z,20.77
2017-04-15T04:19:21.731Z,20.76
2017-04-15T04:20:31.642Z,20.76
2017-04-15T04:21:41.869Z,20.79
2017-04-15T04:22:52.091Z,20.77
2017-04-15T04:24:02.011Z,20.74
2017-04-15T04:25:11.929Z,20.74
2017-04-15T04:26:21.846Z,20.76
2017-04-15T04:27:32.090Z,20.79
2017-04-15T04:28:42.316Z,20.74
2017-04-15T04:29:51.921Z,20.7
2017-04-15T04:31:02.139Z,20.73
2017-04-15T04:32:12.374Z,20.77
2017-04-15T04:33:22.612Z,20.76
2017-04-15T04:34:32.841Z,20.76
2017-04-15T04:35:43.057Z,20.84
2017-04-15T04:36:52.968Z,20.79
2017-04-15T04:38:02.568Z,20.77
2017-04-15T04:39:12.795Z,20.84
2017-04-15T04:40:23.023Z,20.84
2017-04-15T04:41:33.266Z,20.8
2017-04-15T04:42:43.495Z,20.74
2017-04-15T04:43:53.109Z,20.8
2017-04-15T04:45:03.042Z,20.8
2017-04-15T04:46:13.281Z,20.79
2017-04-15T04:47:23.506Z,20.79
2017-04-15T04:48:33.734Z,20.87
2017-04-15T04:49:43.652Z,20.79
2017-04-15T04:50:53.889Z,20.85
2017-04-15T04:52:04.118Z,20.87
2017-04-15T04:53:14.438Z,20.87
2017-04-15T04:54:24.460Z,20.87
2017-04-15T04:55:34.688Z,20.87
2017-04-15T04:56:44.982Z,20.89
2017-04-15T04:57:55.217Z,20.89
2017-04-15T04:59:05.457Z,20.91
2017-04-15T05:00:15.377Z,20.82
2017-04-15T05:01:25.616Z,20.8
2017-04-15T05:02:35.845Z,20.76
2017-04-15T05:03:45.446Z,20.82
2017-04-15T05:04:55.059Z,20.79
2017-04-15T05:06:04.988Z,20.82
2017-04-15T05:07:15.216Z,20.8
2017-04-15T05:08:25.445Z,20.84
2017-04-15T05:09:35.682Z,20.82
2017-04-15T05:10:45.903Z,20.82
2017-04-15T05:11:56.128Z,20.82
2017-04-15T05:13:06.343Z,20.82
2017-04-15T05:14:16.264Z,20.82
2017-04-15T05:15:26.490Z,20.82
2017-04-15T05:16:36.403Z,20.76
2017-04-15T05:17:46.312Z,20.84
2017-04-15T05:18:56.538Z,20.74
2017-04-15T05:20:06.465Z,20.79
2017-04-15T05:21:16.386Z,20.88
2017-04-15T05:22:26.305Z,20.76
2017-04-15T05:23:36.222Z,20.79
2017-04-15T05:24:45.828Z,20.8
2017-04-15T05:25:56.058Z,20.84
2017-04-15T05:27:05.976Z,20.91
2017-04-15T05:28:16.200Z,20.77
2017-04-15T05:29:25.805Z,20.79
2017-04-15T05:30:36.218Z,20.79
2017-04-15T05:31:45.820Z,20.91
2017-04-15T05:32:56.050Z,20.8
2017-04-15T05:34:06.095Z,20.84
2017-04-15T05:35:16.024Z,20.84
2017-04-15T05:36:25.404Z,20.84
2017-04-15T05:37:35.514Z,20.89
2017-04-15T05:38:45.748Z,20.89
2017-04-15T05:39:55.971Z,20.88
2017-04-15T05:41:06.197Z,20.98
2017-04-15T05:42:16.106Z,20.97
2017-04-15T05:43:26.334Z,21.03
2017-04-15T05:44:36.568Z,21.04
2017-04-15T05:45:46.508Z,20.99
2017-04-15T05:46:56.732Z,20.91
2017-04-15T05:48:06.644Z,20.95
2017-04-15T05:49:16.873Z,20.91
2017-04-15T05:50:27.788Z,20.89
2017-04-15T05:51:38.010Z,20.91
2017-04-15T05:52:48.247Z,20.99
2017-04-15T05:53:58.484Z,20.87
2017-04-15T05:55:08.708Z,20.95
2017-04-15T05:56:18.944Z,21.07
2017-04-15T05:57:28.857Z,21.06
2017-04-15T05:58:38.775Z,21.09
2017-04-15T05:59:48.995Z,21.1
2017-04-15T06:00:58.910Z,21.09
2017-04-15T06:02:08.841Z,21.12
2017-04-15T06:03:18.749Z,21.07
2017-04-15T06:04:28.986Z,21.09
2017-04-15T06:05:39.216Z,20.95
2017-04-15T06:06:49.442Z,20.98
2017-04-15T06:07:59.672Z,20.97
2017-04-15T06:09:09.598Z,21.01
2017-04-15T06:10:19.828Z,21.1
2017-04-15T06:11:30.067Z,21.07
2017-04-15T06:12:39.981Z,21.04
2017-04-15T06:13:50.207Z,21.21
2017-04-15T06:15:00.446Z,21.22
2017-04-15T06:16:10.671Z,21.25
2017-04-15T06:17:20.592Z,21.19
2017-04-15T06:18:30.830Z,21.21
2017-04-15T06:19:41.049Z,21.19
2017-04-15T06:20:50.962Z,21.22
2017-04-15T06:22:01.191Z,21.22
2017-04-15T06:23:11.434Z,21.24
2017-04-15T06:24:21.716Z,21.21
2017-04-15T06:25:31.647Z,21.24
2017-04-15T06:26:41.869Z,21.19
2017-04-15T06:27:52.001Z,21.19
2017-04-15T06:29:01.919Z,21.25
2017-04-15T06:30:11.834Z,21.22
2017-04-15T06:31:21.781Z,21.24
2017-04-15T06:32:32.005Z,21.24
2017-04-15T06:33:41.924Z,21.27
2017-04-15T06:36:11.121Z,21.22
2017-04-15T06:37:21.366Z,21.21
2017-04-15T06:38:31.600Z,21.19
2017-04-15T06:39:41.525Z,21.22
2017-04-15T06:40:51.452Z,21.24
2017-04-15T06:42:01.701Z,21.24
2017-04-15T06:43:11.947Z,21.27
2017-04-15T06:44:22.192Z,21.24
2017-04-15T06:45:31.812Z,21.27
2017-04-15T06:46:41.420Z,21.24
2017-04-15T06:47:51.058Z,21.27
2017-04-15T06:49:01.298Z,21.21
2017-04-15T06:50:10.909Z,21.24
2017-04-15T06:51:20.836Z,21.27
2017-04-15T06:52:31.078Z,21.27
2017-04-15T06:53:41.005Z,21.28
2017-04-15T06:54:50.933Z,21.25
2017-04-15T06:56:01.172Z,21.24
2017-04-15T06:57:11.416Z,21.25
2017-04-15T06:58:21.345Z,21.27
2017-04-15T06:59:31.271Z,21.25
2017-04-15T07:00:41.203Z,21.25
2017-04-15T07:01:51.451Z,21.28
2017-04-15T07:03:01.396Z,21.21
2017-04-15T07:04:11.325Z,21.25
2017-04-15T07:05:21.578Z,21.27
2017-04-15T07:06:31.812Z,21.27
2017-04-15T07:07:42.055Z,21.22
2017-04-15T07:08:52.296Z,21.29
2017-04-15T07:10:02.541Z,21.25
2017-04-15T07:11:12.466Z,21.24
2017-04-15T07:12:22.388Z,21.25
2017-04-15T07:13:32.315Z,21.28
2017-04-15T07:14:42.549Z,21.25
2017-04-15T07:15:52.779Z,21.21
2017-04-15T07:17:03.012Z,21.31
2017-04-15T07:18:13.541Z,21.28
2017-04-15T07:19:23.460Z,21.21
2017-04-15T07:20:33.603Z,21.31
2017-04-15T07:21:43.542Z,21.29
2017-04-15T07:22:53.498Z,21.29
2017-04-15T07:24:03.843Z,21.28
2017-04-15T07:25:14.088Z,21.27
2017-04-15T07:26:24.028Z,21.25
2017-04-15T07:27:33.960Z,21.34
2017-04-15T07:28:44.199Z,21.24
2017-04-15T07:29:54.447Z,21.31
2017-04-15T07:31:04.681Z,21.25
2017-04-15T07:32:14.925Z,21.27
2017-04-15T07:33:25.162Z,21.29
2017-04-15T07:34:35.096Z,21.25
2017-04-15T07:35:45.332Z,21.28
2017-04-15T07:36:55.256Z,21.29
2017-04-15T07:38:05.498Z,21.29
2017-04-15T07:39:15.740Z,21.21
2017-04-15T07:40:25.353Z,21.28
2017-04-15T07:41:35.590Z,21.22
2017-04-15T07:42:45.859Z,21.28
2017-04-15T07:43:56.111Z,21.27
2017-04-15T07:45:06.047Z,21.27
2017-04-15T07:46:15.345Z,21.25
2017-04-15T07:47:25.275Z,21.25
2017-04-15T07:48:35.519Z,21.29
2017-04-15T07:49:45.756Z,21.28
2017-04-15T07:50:55.684Z,21.28
2017-04-15T07:52:05.619Z,21.29
2017-04-15T07:53:15.551Z,21.25
2017-04-15T07:54:25.805Z,21.28
2017-04-15T07:55:35.735Z,21.21
2017-04-15T07:56:45.971Z,21.31
2017-04-15T07:57:56.226Z,21.25
2017-04-15T07:59:06.473Z,21.28
2017-04-15T08:00:16.237Z,21.28
2017-04-15T08:01:26.194Z,21.28
2017-04-15T08:02:36.431Z,21.24
2017-04-15T08:03:46.755Z,21.21
2017-04-15T08:04:56.998Z,21.28
2017-04-15T08:06:06.926Z,21.28
2017-04-15T08:07:16.965Z,21.24
2017-04-15T08:08:27.107Z,21.31
2017-04-15T08:09:37.357Z,21.25
2017-04-15T08:10:47.609Z,21.28
2017-04-15T08:11:57.844Z,21.29
2017-04-15T08:13:07.779Z,21.25
2017-04-15T08:14:17.718Z,21.24
2017-04-15T08:15:27.655Z,21.28
2017-04-15T08:16:37.601Z,21.28
2017-04-15T08:17:47.836Z,21.21
2017-04-15T08:18:58.099Z,21.22
2017-04-15T08:20:08.032Z,21.27
2017-04-15T08:21:17.646Z,21.22
2017-04-15T08:22:27.912Z,21.22
2017-04-15T08:23:38.147Z,21.19
2017-04-15T08:24:47.762Z,21.19
2017-04-15T08:25:58.006Z,21.27
2017-04-15T08:27:07.927Z,21.25
2017-04-15T08:28:18.172Z,21.21
2017-04-15T08:29:28.427Z,21.27
2017-04-15T08:30:38.352Z,21.24
2017-04-15T08:31:48.586Z,21.22
2017-04-15T08:32:58.825Z,21.19
2017-04-15T08:34:08.757Z,21.21
2017-04-15T08:35:18.995Z,21.24
2017-04-15T08:36:29.233Z,21.24
2017-04-15T08:37:39.166Z,21.19
2017-04-15T08:38:49.415Z,21.22
2017-04-15T08:39:59.359Z,21.19
2017-04-15T08:41:08.978Z,21.21
2017-04-15T08:42:19.212Z,21.24
2017-04-15T08:43:29.136Z,21.22
2017-04-15T08:44:39.187Z,21.19
2017-04-15T08:45:49.428Z,21.24
2017-04-15T08:46:59.351Z,21.19
2017-04-15T08:48:09.722Z,21.19
2017-04-15T08:49:19.341Z,21.21
2017-04-15T08:50:29.760Z,21.16
2017-04-15T08:51:39.991Z,21.16
2017-04-15T08:52:50.238Z,21.19
2017-04-15T08:54:00.476Z,21.22
2017-04-15T08:55:10.409Z,21.19
2017-04-15T08:56:20.647Z,21.17
2017-04-15T08:57:30.575Z,21.22
2017-04-15T08:58:40.191Z,21.22
2017-04-15T08:59:50.120Z,21.21
2017-04-15T09:01:00.040Z,21.22
2017-04-15T09:02:09.964Z,21.16
2017-04-15T09:03:19.893Z,21.14
2017-04-15T09:04:29.821Z,21.24
2017-04-15T09:05:40.060Z,21.19
2017-04-15T09:06:50.302Z,21.19
2017-04-15T09:07:59.915Z,21.21
2017-04-15T09:09:10.160Z,21.21
2017-04-15T09:10:20.403Z,21.25
2017-04-15T09:11:30.334Z,21.19
2017-04-15T09:12:40.584Z,21.17
2017-04-15T09:13:50.508Z,21.25
2017-04-15T09:15:00.124Z,21.21
2017-04-15T09:16:10.359Z,21.17
2017-04-15T09:17:20.596Z,21.14
2017-04-15T09:18:30.210Z,21.22
2017-04-15T09:19:40.461Z,21.24
2017-04-15T09:20:50.695Z,21.22
2017-04-15T09:22:00.928Z,21.24
2017-04-15T09:23:10.537Z,21.24
2017-04-15T09:24:20.470Z,21.24
2017-04-15T09:25:30.719Z,21.22
2017-04-15T09:26:40.956Z,21.21
2017-04-15T09:27:50.883Z,21.24
2017-04-15T09:29:00.805Z,21.22
2017-04-15T09:30:10.424Z,21.14
2017-04-15T09:31:20.680Z,21.24
2017-04-15T09:32:30.983Z,21.21
2017-04-15T09:33:40.914Z,21.21
2017-04-15T09:34:51.175Z,21.17
2017-04-15T09:36:01.406Z,21.19
2017-04-15T09:37:11.342Z,21.22
2017-04-15T09:38:21.262Z,21.25
2017-04-15T09:39:31.502Z,21.22
2017-04-15T09:40:41.755Z,21.25
2017-04-15T09:41:52.000Z,21.24
2017-04-15T09:43:01.930Z,21.22
2017-04-15T09:44:11.546Z,21.22
2017-04-15T09:45:21.477Z,21.16
2017-04-15T09:46:31.714Z,21.24
2017-04-15T09:47:41.650Z,21.16
2017-04-15T09:48:51.273Z,21.22
2017-04-15T09:50:01.512Z,21.16
2017-04-15T09:51:11.750Z,21.19
2017-04-15T09:52:21.676Z,21.21
2017-04-15T09:53:31.925Z,21.24
2017-04-15T09:54:42.165Z,21.24
2017-04-15T09:55:52.087Z,21.24
2017-04-15T09:57:02.326Z,21.24
2017-04-15T09:58:12.271Z,21.22
2017-04-15T09:59:22.518Z,21.24
2017-04-15T10:00:32.458Z,21.24
2017-04-15T10:01:42.077Z,21.19
2017-04-15T10:02:52.009Z,21.17
2017-04-15T10:04:02.247Z,21.22
2017-04-15T10:05:11.864Z,21.22
2017-04-15T10:06:21.798Z,21.27
2017-04-15T10:07:32.035Z,21.25
2017-04-15T10:08:42.467Z,21.27
2017-04-15T10:09:52.806Z,21.22
2017-04-15T10:11:03.048Z,21.27
2017-04-15T10:12:13.286Z,21.28
2017-04-15T10:13:23.625Z,21.21
2017-04-15T10:14:33.987Z,21.24
2017-04-15T10:15:44.228Z,21.21
2017-04-15T10:16:54.479Z,20.92
2017-04-15T10:18:04.716Z,20.03
2017-04-15T10:19:14.953Z,19.4
2017-04-15T10:20:25.202Z,18.92
2017-04-15T10:21:35.461Z,18.6
2017-04-15T10:22:45.393Z,18.6
2017-04-15T10:23:55.631Z,19.04
2017-04-15T10:25:05.248Z,19.55
2017-04-15T10:26:15.184Z,19.84
2017-04-15T10:27:25.112Z,20.16
2017-04-15T10:28:35.363Z,20.35
2017-04-15T10:29:45.292Z,20.41
2017-04-15T10:30:55.540Z,20.51
2017-04-15T10:32:05.779Z,20.72
2017-04-15T10:33:16.015Z,20.77
2017-04-15T10:34:25.634Z,20.79
2017-04-15T10:35:35.870Z,20.74
2017-04-15T10:36:45.799Z,20.79
2017-04-15T10:37:55.721Z,20.85
2017-04-15T10:39:05.648Z,20.89
2017-04-15T10:40:15.576Z,20.91
2017-04-15T10:41:25.815Z,20.89
2017-04-15T10:42:36.058Z,20.98
2017-04-15T10:43:46.002Z,21.06
2017-04-15T10:44:56.241Z,21.01
2017-04-15T10:46:06.483Z,21.03
2017-04-15T10:47:16.416Z,20.97
2017-04-15T10:48:26.344Z,21.07
2017-04-15T10:49:36.274Z,21.07
2017-04-15T10:50:46.514Z,21.1
2017-04-15T10:51:56.472Z,21.12
2017-04-15T10:53:06.896Z,21.09
2017-04-15T10:54:16.514Z,21.07
2017-04-15T10:55:26.803Z,21.16
2017-04-15T10:56:36.910Z,21.14
2017-04-15T10:57:47.152Z,21.14
2017-04-15T10:58:57.081Z,21.14
2017-04-15T11:00:07.321Z,21.22
2017-04-15T11:01:17.556Z,21.16
2017-04-15T11:02:27.787Z,21.19
2017-04-15T11:03:38.026Z,21.13
2017-04-15T11:04:48.284Z,21.25
2017-04-15T11:05:58.526Z,21.16
2017-04-15T11:07:08.453Z,21.19
2017-04-15T11:08:18.694Z,21.21
2017-04-15T11:09:28.936Z,21.19
2017-04-15T11:10:38.867Z,21.27
2017-04-15T11:11:48.799Z,21.25
2017-04-15T11:12:58.734Z,21.28
2017-04-15T11:14:08.352Z,21.28
2017-04-15T11:15:18.968Z,21.31
2017-04-15T11:16:29.732Z,21.28
2017-04-15T11:17:40.939Z,21.29
2017-04-15T11:18:52.108Z,21.28
2017-04-15T11:20:03.238Z,21.27
2017-04-15T11:21:13.607Z,21.24
2017-04-15T11:22:24.250Z,21.25
2017-04-15T11:23:35.419Z,21.29
2017-04-15T11:24:46.699Z,21.32
2017-04-15T11:25:57.754Z,21.34
2017-04-15T11:27:08.435Z,21.28
2017-04-15T11:28:18.402Z,21.4
2017-04-15T11:29:28.954Z,21.4
2017-04-15T11:30:39.775Z,21.34
2017-04-15T11:31:50.303Z,21.43
2017-04-15T11:33:01.320Z,21.37
2017-04-15T11:34:11.725Z,21.38
2017-04-15T11:35:21.990Z,21.52
2017-04-15T11:36:32.596Z,21.44
2017-04-15T11:37:42.788Z,21.53
2017-04-15T11:38:52.708Z,21.42
2017-04-15T11:40:03.181Z,21.35
2017-04-15T11:41:13.238Z,21.49
2017-04-15T11:42:23.536Z,21.37
2017-04-15T11:43:33.788Z,21.59
2017-04-15T11:44:44.131Z,21.53
2017-04-15T11:45:54.392Z,21.53
2017-04-15T11:47:04.091Z,21.62
2017-04-15T11:48:14.112Z,21.58
2017-04-15T11:49:24.611Z,21.5
2017-04-15T11:50:35.004Z,21.53
2017-04-15T11:51:45.496Z,21.59
2017-04-15T11:52:56.072Z,21.54
2017-04-15T11:54:06.587Z,21.59
2017-04-15T11:55:16.774Z,21.58
2017-04-15T11:56:27.490Z,21.58
2017-04-15T11:57:37.028Z,21.58
2017-04-15T11:58:47.196Z,21.61
2017-04-15T11:59:57.347Z,21.58
2017-04-15T12:01:07.841Z,21.56
2017-04-15T12:02:18.467Z,21.59
2017-04-15T12:03:28.775Z,21.61
2017-04-15T12:04:39.024Z,21.64
2017-04-15T12:05:49.541Z,21.62
2017-04-15T12:06:59.797Z,21.64
2017-04-15T12:08:09.368Z,21.62
2017-04-15T12:09:19.562Z,21.68
2017-04-15T12:10:29.761Z,21.5
2017-04-15T12:11:40.579Z,20.62
2017-04-15T12:12:50.795Z,20.06
2017-04-15T12:14:00.297Z,19.69
2017-04-15T12:15:10.490Z,19.54
2017-04-15T12:16:21.086Z,19.63
2017-04-15T12:17:31.453Z,19.58
2017-04-15T12:18:41.840Z,19.91
2017-04-15T12:19:52.096Z,20.23
2017-04-15T12:21:02.625Z,20.58
2017-04-15T12:22:12.783Z,20.74
2017-04-15T12:23:22.544Z,20.97
2017-04-15T12:24:32.959Z,21.1
2017-04-15T12:25:42.956Z,21.21
2017-04-15T12:26:52.987Z,21.32
2017-04-15T12:28:02.985Z,21.29
2017-04-15T12:29:13.230Z,21.29
2017-04-15T12:30:22.528Z,21.44
2017-04-15T12:31:32.769Z,21.47
2017-04-15T12:32:42.696Z,21.49
2017-04-15T12:33:53.138Z,21.49
2017-04-15T12:35:03.382Z,21.49
2017-04-15T12:36:13.622Z,21.47
2017-04-15T12:37:23.236Z,21.43
2017-04-15T12:38:32.535Z,21.44
2017-04-15T12:39:42.461Z,21.43
2017-04-15T12:40:52.697Z,21.54
2017-04-15T12:42:02.948Z,21.43
2017-04-15T12:43:13.192Z,21.4
2017-04-15T12:44:22.807Z,21.53
2017-04-15T12:45:33.058Z,21.56
2017-04-15T12:46:43.302Z,21.4
2017-04-15T12:47:52.913Z,21.56
2017-04-15T12:49:02.530Z,21.56
2017-04-15T12:50:12.152Z,21.59
2017-04-15T12:51:22.392Z,21.68
2017-04-15T12:52:32.315Z,21.58
2017-04-15T12:53:43.032Z,21.67
2017-04-15T12:54:53.288Z,21.67
2017-04-15T12:56:03.217Z,21.67
2017-04-15T12:57:13.450Z,21.65
2017-04-15T12:58:23.063Z,21.69
2017-04-15T12:59:32.994Z,21.69
2017-04-15T13:00:42.931Z,21.77
2017-04-15T13:01:52.858Z,21.75
2017-04-15T13:03:03.112Z,21.79
2017-04-15T13:04:13.349Z,21.75
2017-04-15T13:05:23.586Z,21.68
2017-04-15T13:06:33.515Z,21.67
2017-04-15T13:07:42.818Z,21.67
2017-04-15T13:08:53.052Z,21.68
2017-04-15T13:10:03.297Z,21.65
2017-04-15T13:11:13.535Z,21.72
2017-04-15T13:12:23.456Z,21.72
2017-04-15T13:13:33.698Z,21.75
2017-04-15T13:14:43.940Z,21.77
2017-04-15T13:15:54.175Z,21.74
2017-04-15T13:17:04.417Z,21.71
2017-04-15T13:18:14.659Z,21.8
2017-04-15T13:19:24.898Z,21.75
2017-04-15T13:20:34.824Z,21.74
2017-04-15T13:21:45.069Z,21.72
2017-04-15T13:22:55.316Z,21.74
2017-04-15T13:24:04.306Z,21.75
2017-04-15T13:25:14.544Z,21.84
2017-04-15T13:26:24.154Z,21.84
2017-04-15T13:27:34.080Z,21.77
2017-04-15T13:28:44.323Z,21.84
2017-04-15T13:29:53.939Z,21.84
2017-04-15T13:31:04.186Z,21.83
2017-04-15T13:32:14.438Z,21.79
2017-04-15T13:33:24.683Z,21.75
2017-04-15T13:34:34.922Z,21.84
2017-04-15T13:35:44.538Z,21.79
2017-04-15T13:36:54.162Z,21.84
2017-04-15T13:38:04.415Z,21.84
2017-04-15T13:39:14.728Z,21.9
2017-04-15T13:40:24.806Z,21.83
2017-04-15T13:41:34.833Z,21.84
2017-04-15T13:42:44.753Z,21.84
2017-04-15T13:43:54.681Z,21.88
2017-04-15T13:45:04.613Z,21.92
2017-04-15T13:46:14.859Z,21.91
2017-04-15T13:47:24.789Z,21.88
2017-04-15T13:48:34.731Z,21.88
2017-04-15T13:49:44.345Z,21.86
2017-04-15T13:50:54.586Z,21.86
2017-04-15T13:52:04.526Z,21.88
2017-04-15T13:53:14.773Z,22.03
2017-04-15T13:54:24.406Z,22.07
2017-04-15T13:55:34.642Z,21.99
2017-04-15T13:56:44.878Z,22.07
2017-04-15T13:57:55.130Z,22.05
2017-04-15T13:59:05.362Z,22.02
2017-04-15T14:00:15.611Z,22.02
2017-04-15T14:01:25.850Z,22.05
2017-04-15T14:02:36.088Z,21.99
2017-04-15T14:03:45.712Z,22.06
2017-04-15T14:04:55.332Z,22.02
2017-04-15T14:06:05.573Z,22.05
2017-04-15T14:07:15.815Z,22
2017-04-15T14:08:25.489Z,22.02
2017-04-15T14:09:36.541Z,22.05
2017-04-15T14:10:47.614Z,22.05
2017-04-15T14:11:58.695Z,22.09
2017-04-15T14:13:09.406Z,22.03
2017-04-15T14:14:20.373Z,22.03
2017-04-15T14:15:31.462Z,22.02
2017-04-15T14:16:42.170Z,22.07
2017-04-15T14:17:53.184Z,22.03
2017-04-15T14:19:03.885Z,22.07
2017-04-15T14:20:14.710Z,22.06
2017-04-15T14:21:25.169Z,22.07
2017-04-15T14:22:35.702Z,22.1
2017-04-15T14:23:45.785Z,22.03
2017-04-15T14:24:56.154Z,22.07
2017-04-15T14:26:06.256Z,22.15
2017-04-15T14:27:16.615Z,22.14
2017-04-15T14:28:26.955Z,22.14
2017-04-15T14:29:36.943Z,22.12
2017-04-15T14:30:47.570Z,22.18
2017-04-15T14:31:58.560Z,22.18
2017-04-15T14:33:08.799Z,22.2
2017-04-15T14:34:18.417Z,22.17
2017-04-15T14:35:28.346Z,22.22
2017-04-15T14:36:38.591Z,22.24
2017-04-15T14:37:48.526Z,22.21
2017-04-15T14:38:58.770Z,22.3
2017-04-15T14:40:08.709Z,22.2
2017-04-15T14:41:18.948Z,22.2
2017-04-15T14:42:28.873Z,22.22
2017-04-15T14:43:39.118Z,22.3
2017-04-15T14:44:49.054Z,22.3
2017-04-15T14:45:59.294Z,22.28
2017-04-15T14:47:09.763Z,22.3
2017-04-15T14:48:20.033Z,22.3
2017-04-15T14:49:30.343Z,22.25
2017-04-15T14:50:40.273Z,22.28
2017-04-15T14:51:50.540Z,22.21
2017-04-15T14:53:00.788Z,22.25
2017-04-15T14:54:11.047Z,22.15
2017-04-15T14:55:21.301Z,22.21
2017-04-15T14:56:31.548Z,22.21
2017-04-15T14:57:41.790Z,22.27
2017-04-15T14:58:52.037Z,22.22
2017-04-15T15:00:02.288Z,22.2
2017-04-15T15:01:12.532Z,22.24
2017-04-15T15:02:22.772Z,22.21
2017-04-15T15:03:33.025Z,22.27
2017-04-15T15:04:42.963Z,22.24
2017-04-15T15:05:53.202Z,22.28